OISA  Abadeh Airport

Add Bookmark

Abadeh, Iran

Status
Operational
Latitude Longitude
31° 10' 0" N 52° 40' 0" E
31.166668 52.666668
Local (DST + 5) UTC (GMT + 4)
Nov 1, 2014 01:00 Nov 1, 2014 09:30
Sunrise-Sunset Local UTC
Begin Civil Twilight 05:48 02:18
Sunrise 06:13 02:43
Sunset 05:12 13:42
End Civil Twilight 05:37 14:07

Current Weather

METAR Observed VFR
OISA 010800Z 23012KT 9999 FEW040TCU 13/03 Q1019 Sat, Nov 1, 2014 @ 08:00 UTC
(1 Hour, 30 Minutes ago)
Visual Flight Rules
Wind Visibility Clouds Conditions
230° at 12 knots (22 kph) 10 km or more
  • Few at 4,000' AGL
  • No significant weather
Temperatures Readings Precipitation
Current Temp 13°C (55°F)
Dewpoint 3°C (37°F)
Humidity 51%
Altimeter 30.09"Hg
Sea Level Pressure 1019mb
Field Elevation 6574.8'
None Recorded

Additional weather within a 185.2km radius of OISA

Map ICAO Location
OISY 118.7km W (244°)
OIYY 173.2km E (061°)
OISS 180.9km S (182°)

24 Hour Weather History

Loading
-

24 Hour Weather Graphs

Loading
-

CheckWX.com is intended as a tool to help pilots better visualize weather data. It is not intended as a substitute for an official weather briefing obtained from a Flight Service Station. CheckWX.com does not meet the FAA requirements for an official pre-flight weather briefing. Therefore, it's important that pilots still call and obtain an official FSS pre-flight weather briefing.